Time;durP1;ratioP1;P1;durP2;ratioP2;P2;SDS_P1;SDS_P2;PMS_P1;PMS_P2;Temp;Humidity;BMP_temperature;BMP_pressure;BME280_temperature;BME280_humidity;BME280_pressure;Samples;Min_cycle;Max_cycle;Signal;HPM_P1;HPM_P2
2022/10/27 00:00:45;;;;;;;12.60;4.65;;;14.60;99.90;;;;;;5074228;28;20106;-63
2022/10/27 00:03:13;;;;;;;17.48;5.07;;;14.60;99.90;;;;;;5074529;28;20071;-63
2022/10/27 00:05:42;;;;;;;;;;;14.60;99.90;;;;;;5059140;28;20118;-63
2022/10/27 00:08:13;;;;;;;13.30;3.95;;;14.60;99.90;;;;;;5076088;28;19953;-63
2022/10/27 00:10:41;;;;;;;14.93;4.88;;;14.60;99.90;;;;;;5074186;28;20063;-63
2022/10/27 00:13:08;;;;;;;17.88;5.93;;;14.60;99.90;;;;;;5057987;28;20041;-63
2022/10/27 00:15:35;;;;;;;10.07;3.90;;;14.60;99.90;;;;;;5075317;28;20048;-63
2022/10/27 00:18:07;;;;;;;12.18;4.13;;;14.70;99.90;;;;;;5074800;28;20521;-63
2022/10/27 00:20:34;;;;;;;18.25;5.68;;;14.70;99.90;;;;;;5076248;28;20049;-63
2022/10/27 00:23:01;;;;;;;15.98;4.35;;;14.70;99.90;;;;;;5075947;28;20090;-63
2022/10/27 00:25:28;;;;;;;9.90;4.20;;;14.70;99.90;;;;;;5075167;28;20476;-63
2022/10/27 00:27:55;;;;;;;14.20;4.78;;;14.70;99.90;;;;;;5075616;28;20049;-63
2022/10/27 00:30:21;;;;;;;13.07;4.00;;;14.80;99.90;;;;;;5074304;28;20048;-63
2022/10/27 00:32:48;;;;;;;12.23;3.60;;;14.80;99.90;;;;;;5074463;28;20188;-63
2022/10/27 00:35:16;;;;;;;9.20;4.03;;;14.80;99.90;;;;;;5075188;28;20041;-63
2022/10/27 00:37:43;;;;;;;14.30;5.05;;;14.80;99.90;;;;;;5075852;28;20098;-63
2022/10/27 00:40:10;;;;;;;9.40;3.72;;;14.80;99.90;;;;;;5073476;28;20483;-63
2022/10/27 00:42:37;;;;;;;11.45;4.25;;;14.80;99.90;;;;;;5074224;28;20048;-63
2022/10/27 00:45:04;;;;;;;11.25;3.33;;;14.80;99.90;;;;;;5074771;28;20494;-63
2022/10/27 00:47:33;;;;;;;8.98;3.83;;;14.80;99.90;;;;;;5073408;28;20044;-63
2022/10/27 00:50:02;;;;;;;12.65;5.47;;;14.80;99.90;;;;;;5057623;28;20052;-63
2022/10/27 00:52:34;;;;;;;10.93;4.25;;;14.90;99.90;;;;;;5073592;28;20048;-63
2022/10/27 00:55:10;;;;;;;15.07;4.30;;;14.80;99.90;;;;;;5073916;28;20333;-63
2022/10/27 00:57:37;;;;;;;13.48;4.13;;;14.80;99.90;;;;;;5057825;28;20051;-63
2022/10/27 01:00:04;;;;;;;10.77;3.70;;;14.90;99.90;;;;;;5073126;28;20080;-63
2022/10/27 01:02:32;;;;;;;10.50;4.10;;;14.90;99.90;;;;;;5074562;28;20090;-63
2022/10/27 01:05:26;;;;;;;8.27;4.03;;;14.80;99.90;;;;;;5073051;28;20585;-63
2022/10/27 01:07:57;;;;;;;8.25;3.83;;;14.80;99.90;;;;;;5073402;28;20036;-63
2022/10/27 01:10:24;;;;;;;12.88;5.10;;;14.80;99.90;;;;;;5072496;28;20067;-63
2022/10/27 01:12:52;;;;;;;9.07;3.50;;;14.80;99.90;;;;;;5072734;28;20045;-63
2022/10/27 01:15:21;;;;;;;13.70;3.60;;;14.80;99.90;;;;;;5072834;28;20066;-63
2022/10/27 01:18:09;;;;;;;9.40;4.22;;;14.80;99.90;;;;;;5073988;28;20072;-63
2022/10/27 01:20:57;;;;;;;8.10;3.70;;;14.70;99.90;;;;;;5074368;28;20074;-63
2022/10/27 01:23:49;;;;;;;9.02;3.75;;;14.70;99.90;;;;;;5073441;28;20099;-63
2022/10/27 01:26:24;;;;;;;9.90;3.45;;;14.70;99.90;;;;;;5073795;28;20480;-63
2022/10/27 01:29:14;;;;;;;10.35;4.03;;;14.70;99.90;;;;;;5056043;28;20589;-63
2022/10/27 01:32:15;;;;;;;5.80;3.67;;;14.70;99.90;;;;;;5072490;28;20548;-63
2022/10/27 01:34:45;;;;;;;11.70;4.05;;;14.70;99.90;;;;;;5073249;28;20040;-63
2022/10/27 01:37:19;;;;;;;10.55;4.20;;;14.70;99.90;;;;;;5072379;28;20076;-62
2022/10/27 01:40:01;;;;;;;12.07;4.72;;;14.70;99.90;;;;;;5073750;28;20067;-62
2022/10/27 01:42:40;;;;;;;9.65;4.22;;;14.70;99.90;;;;;;5057473;28;20044;-63
2022/10/27 01:45:07;;;;;;;10.73;4.47;;;14.70;99.90;;;;;;5072959;28;20102;-62
2022/10/27 01:47:34;;;;;;;13.07;4.22;;;14.70;99.90;;;;;;5073883;28;20041;-62
2022/10/27 01:50:02;;;;;;;8.45;4.32;;;14.70;99.90;;;;;;5072039;28;20040;-62
2022/10/27 01:52:39;;;;;;;10.60;4.28;;;14.70;99.90;;;;;;5073267;28;20129;-62
2022/10/27 01:55:32;;;;;;;9.88;4.32;;;14.60;99.90;;;;;;5074003;28;20132;-63
2022/10/27 01:58:30;;;;;;;7.30;3.20;;;14.50;99.90;;;;;;5064737;28;20140;-63
2022/10/27 02:01:35;;;;;;;8.30;4.00;;;14.40;99.90;;;;;;5073143;28;20037;-63
2022/10/27 02:04:07;;;;;;;7.88;3.33;;;14.40;99.90;;;;;;5072089;28;20109;-63
2022/10/27 02:06:43;;;;;;;12.63;4.32;;;14.30;99.90;;;;;;5056353;28;20040;-63
2022/10/27 02:09:12;;;;;;;8.45;4.45;;;14.30;99.90;;;;;;5055933;28;20138;-63
2022/10/27 02:11:40;;;;;;;8.60;4.90;;;14.40;99.90;;;;;;5071815;28;20472;-63
2022/10/27 02:14:06;;;;;;;12.00;4.47;;;14.40;99.90;;;;;;5055486;28;20339;-63
2022/10/27 02:16:36;;;;;;;10.40;4.93;;;14.40;99.90;;;;;;5072431;28;20329;-63
2022/10/27 02:19:13;;;;;;;11.18;4.63;;;14.40;99.90;;;;;;5056364;28;20052;-63
2022/10/27 02:21:40;;;;;;;9.35;4.47;;;14.50;99.90;;;;;;5071455;28;20041;-63
2022/10/27 02:24:07;;;;;;;14.88;5.03;;;14.50;99.90;;;;;;5071734;28;20047;-63
2022/10/27 02:26:44;;;;;;;9.98;4.97;;;14.50;99.90;;;;;;5055436;28;20059;-63
2022/10/27 02:29:32;;;;;;;12.40;4.60;;;14.50;99.90;;;;;;5071500;28;20040;-63
2022/10/27 02:32:00;;;;;;;8.02;4.55;;;14.50;99.90;;;;;;5069260;28;20048;-63
2022/10/27 02:34:27;;;;;;;9.90;4.80;;;14.50;99.90;;;;;;5071426;28;20048;-63
2022/10/27 02:36:54;;;;;;;14.05;4.68;;;14.50;99.90;;;;;;5071350;28;20076;-63
2022/10/27 02:39:21;;;;;;;12.93;4.45;;;14.50;99.90;;;;;;5071207;28;20040;-63
2022/10/27 02:41:48;;;;;;;11.55;4.93;;;14.50;99.90;;;;;;5071656;28;20530;-63
2022/10/27 02:44:14;;;;;;;13.80;5.18;;;14.50;99.90;;;;;;5072341;28;20098;-63
2022/10/27 02:46:42;;;;;;;10.85;4.10;;;14.50;99.90;;;;;;5071349;28;20044;-63
2022/10/27 02:49:11;;;;;;;8.95;5.00;;;14.50;99.90;;;;;;5072871;28;20083;-64
2022/10/27 02:51:38;;;;;;;13.65;4.85;;;14.50;99.90;;;;;;5072278;28;20356;-63
2022/10/27 02:54:04;;;;;;;9.32;4.28;;;14.50;99.90;;;;;;5073034;28;20407;-63
2022/10/27 02:56:31;;;;;;;12.07;4.30;;;14.50;99.90;;;;;;5071268;28;20044;-64
2022/10/27 02:58:58;;;;;;;7.85;4.47;;;14.40;99.90;;;;;;5071587;28;20041;-64
2022/10/27 03:01:25;;;;;;;12.52;5.00;;;14.50;99.90;;;;;;5073406;28;20049;-64
2022/10/27 03:03:52;;;;;;;12.60;5.65;;;14.40;99.90;;;;;;5071826;28;20044;-64
2022/10/27 03:06:19;;;;;;;10.40;5.07;;;14.40;99.90;;;;;;5054904;28;20071;-64
2022/10/27 03:08:46;;;;;;;12.15;5.05;;;14.40;99.90;;;;;;5072659;28;20392;-64
2022/10/27 03:11:12;;;;;;;10.77;4.88;;;14.40;99.90;;;;;;5071420;28;20041;-64
2022/10/27 03:13:40;;;;;;;10.00;5.20;;;14.40;99.90;;;;;;5071069;28;20552;-64
2022/10/27 03:16:06;;;;;;;10.00;4.90;;;14.40;99.90;;;;;;5072314;28;20499;-64
2022/10/27 03:18:33;;;;;;;10.85;5.32;;;14.40;99.90;;;;;;5071278;28;20044;-64
2022/10/27 03:21:00;;;;;;;7.35;4.55;;;14.40;99.90;;;;;;5071947;28;20049;-64
2022/10/27 03:23:27;;;;;;;10.40;5.18;;;14.40;99.90;;;;;;5055188;28;20045;-64
2022/10/27 03:25:54;;;;;;;8.85;5.35;;;14.40;99.90;;;;;;5071792;28;20086;-64
2022/10/27 03:28:29;;;;;;;9.60;5.30;;;14.40;99.90;;;;;;5073061;28;20051;-64
2022/10/27 03:30:56;;;;;;;12.65;5.32;;;14.40;99.90;;;;;;5072099;28;20044;-64
2022/10/27 03:33:22;;;;;;;11.55;5.53;;;14.40;99.90;;;;;;5073322;28;20048;-64
2022/10/27 03:35:49;;;;;;;10.00;4.70;;;14.40;99.90;;;;;;5075391;28;20098;-64
2022/10/27 03:38:16;;;;;;;8.77;4.90;;;14.40;99.90;;;;;;5058038;28;20557;-64
2022/10/27 03:40:43;;;;;;;8.40;5.18;;;14.50;99.90;;;;;;5075830;28;20052;-64
2022/10/27 03:43:10;;;;;;;13.38;5.43;;;14.50;99.90;;;;;;5075339;28;20075;-64
2022/10/27 03:45:37;;;;;;;7.65;4.78;;;14.50;99.90;;;;;;5057854;28;20079;-64
2022/10/27 03:48:11;;;;;;;9.82;3.97;;;14.50;99.90;;;;;;5074813;28;20106;-63
2022/10/27 03:50:38;;;;;;;9.07;4.40;;;14.50;99.90;;;;;;5059481;28;20040;-63
2022/10/27 03:53:05;;;;;;;13.43;4.45;;;14.50;99.90;;;;;;5074862;28;20106;-63
2022/10/27 03:55:32;;;;;;;9.07;3.83;;;14.60;99.90;;;;;;5042215;28;20401;-63
2022/10/27 03:57:59;;;;;;;12.40;3.72;;;14.60;99.90;;;;;;5058874;28;20048;-63
2022/10/27 04:00:27;;;;;;;10.75;4.15;;;14.60;99.90;;;;;;5074594;28;20484;-63
2022/10/27 04:02:54;;;;;;;10.47;3.40;;;14.60;99.90;;;;;;5076090;28;20428;-63
2022/10/27 04:05:21;;;;;;;8.23;3.65;;;14.60;99.90;;;;;;5076158;28;20277;-63
2022/10/27 04:07:48;;;;;;;9.15;3.88;;;14.60;99.90;;;;;;5074795;28;20048;-63
2022/10/27 04:10:15;;;;;;;7.95;4.22;;;14.60;99.90;;;;;;5075686;28;20045;-64
2022/10/27 04:12:52;;;;;;;7.78;3.72;;;14.60;99.90;;;;;;5075411;28;20044;-63
2022/10/27 04:15:20;;;;;;;12.65;3.13;;;14.70;99.90;;;;;;5058170;28;20040;-63
2022/10/27 04:17:47;;;;;;;5.38;3.03;;;14.60;99.90;;;;;;5041374;28;20113;-63
2022/10/27 04:20:14;;;;;;;9.50;3.65;;;14.70;99.90;;;;;;5057356;28;20083;-63
2022/10/27 04:22:41;;;;;;;7.50;3.53;;;14.70;99.90;;;;;;5073891;28;20036;-63
2022/10/27 04:25:08;;;;;;;7.55;3.75;;;14.80;99.90;;;;;;5074151;28;20044;-63
2022/10/27 04:27:34;;;;;;;8.10;3.85;;;14.80;99.90;;;;;;5075812;28;20052;-63
2022/10/27 04:30:01;;;;;;;12.70;3.60;;;14.80;99.90;;;;;;5075109;28;20037;-63
2022/10/27 04:32:28;;;;;;;10.30;3.17;;;14.80;99.90;;;;;;5076282;28;20101;-63
2022/10/27 04:34:55;;;;;;;10.65;3.25;;;14.80;99.90;;;;;;5075184;28;20040;-63
2022/10/27 04:37:22;;;;;;;8.80;3.85;;;14.80;99.90;;;;;;5075126;28;20045;-63
2022/10/27 04:39:49;;;;;;;9.88;3.50;;;14.80;99.90;;;;;;5075318;28;20090;-63
2022/10/27 04:42:16;;;;;;;6.18;3.25;;;14.80;99.90;;;;;;5074147;28;20457;-63
2022/10/27 04:44:42;;;;;;;10.23;4.30;;;14.80;99.90;;;;;;5073425;28;20052;-63
2022/10/27 04:47:09;;;;;;;7.57;4.30;;;14.80;99.90;;;;;;5056859;28;20070;-63
2022/10/27 04:49:36;;;;;;;9.73;3.67;;;14.80;99.90;;;;;;5076060;28;20098;-63
2022/10/27 04:52:03;;;;;;;8.30;4.35;;;14.80;99.90;;;;;;5075746;28;20044;-63
2022/10/27 04:54:30;;;;;;;11.27;4.13;;;14.80;99.90;;;;;;5056687;28;20480;-63
2022/10/27 04:56:57;;;;;;;8.68;4.50;;;14.80;99.90;;;;;;5073485;28;20094;-63
2022/10/27 04:59:24;;;;;;;7.70;3.80;;;14.80;99.90;;;;;;5073314;28;20052;-63
2022/10/27 05:01:51;;;;;;;9.48;3.58;;;14.80;99.90;;;;;;5074216;28;20097;-63
2022/10/27 05:04:18;;;;;;;12.40;3.67;;;14.80;99.90;;;;;;5073350;28;20360;-63
2022/10/27 05:06:45;;;;;;;8.38;3.92;;;14.80;99.90;;;;;;5072891;28;20425;-63
2022/10/27 05:09:11;;;;;;;8.75;3.92;;;14.80;99.90;;;;;;5074773;28;20465;-63
2022/10/27 05:11:38;;;;;;;7.85;4.60;;;14.80;99.90;;;;;;5072878;28;20101;-63
2022/10/27 05:14:05;;;;;;;7.97;3.75;;;14.80;99.90;;;;;;5074059;28;20090;-63
2022/10/27 05:16:32;;;;;;;9.95;3.13;;;14.80;99.90;;;;;;5073935;28;20413;-63
2022/10/27 05:18:59;;;;;;;9.40;3.70;;;14.80;99.90;;;;;;5074274;28;20392;-63
2022/10/27 05:21:26;;;;;;;7.53;3.17;;;14.80;99.90;;;;;;5074866;28;20044;-63
2022/10/27 05:23:52;;;;;;;10.35;3.30;;;14.80;99.90;;;;;;5073934;28;20181;-63
2022/10/27 05:26:19;;;;;;;7.65;3.53;;;14.70;99.90;;;;;;5073808;28;20048;-63
2022/10/27 05:28:47;;;;;;;11.38;3.35;;;14.70;99.90;;;;;;5072478;28;20063;-63
2022/10/27 05:31:13;;;;;;;12.75;3.17;;;14.70;99.90;;;;;;5075369;28;20109;-63
2022/10/27 05:33:40;;;;;;;9.07;3.45;;;14.70;99.90;;;;;;5074647;28;20426;-63
2022/10/27 05:36:07;;;;;;;9.93;3.42;;;14.60;99.90;;;;;;5074506;28;20118;-63
2022/10/27 05:38:36;;;;;;;7.80;3.78;;;14.60;99.90;;;;;;5072576;28;20037;-63
2022/10/27 05:41:04;;;;;;;7.50;3.05;;;14.60;99.90;;;;;;5072334;28;20052;-63
2022/10/27 05:43:31;;;;;;;10.63;3.38;;;14.60;99.90;;;;;;5072967;28;20093;-63
2022/10/27 05:46:05;;;;;;;5.70;3.35;;;14.70;99.90;;;;;;5072478;28;20476;-63
2022/10/27 05:48:32;;;;;;;9.27;2.63;;;14.70;99.90;;;;;;5072350;28;20114;-63
2022/10/27 05:50:59;;;;;;;6.22;2.67;;;14.70;99.90;;;;;;5072056;28;20036;-64
2022/10/27 05:53:26;;;;;;;10.13;3.05;;;14.70;99.90;;;;;;5072470;28;20071;-63
2022/10/27 05:55:53;;;;;;;4.78;2.72;;;14.70;99.90;;;;;;5072246;28;20107;-63
2022/10/27 05:58:20;;;;;;;7.25;3.05;;;14.80;99.90;;;;;;5055821;28;20104;-63
2022/10/27 06:00:47;;;;;;;9.27;2.95;;;14.80;99.90;;;;;;5072006;28;20056;-63
2022/10/27 06:03:21;;;;;;;8.07;3.50;;;14.80;99.90;;;;;;5074072;28;20155;-63
2022/10/27 06:05:48;;;;;;;6.15;2.60;;;14.80;99.90;;;;;;5073864;28;20057;-63
2022/10/27 06:08:15;;;;;;;5.80;2.55;;;14.90;99.90;;;;;;5072319;28;20048;-63
2022/10/27 06:10:42;;;;;;;41.80;32.28;;;14.90;99.90;;;;;;5056219;28;20131;-64
2022/10/27 06:13:10;;;;;;;21.25;12.68;;;15.00;99.90;;;;;;5071710;28;20401;-63
2022/10/27 06:15:37;;;;;;;7.90;5.65;;;15.00;99.90;;;;;;5055139;28;20094;-64
2022/10/27 06:18:05;;;;;;;10.68;4.25;;;15.10;99.90;;;;;;5073183;28;20044;-62
2022/10/27 06:20:32;;;;;;;10.40;3.38;;;15.10;99.90;;;;;;5072865;28;20044;-63
2022/10/27 06:22:59;;;;;;;8.52;3.20;;;15.20;99.90;;;;;;5071656;28;20079;-65
2022/10/27 06:25:26;;;;;;;8.13;3.25;;;15.20;99.90;;;;;;5071575;28;20044;-64
2022/10/27 06:27:53;;;;;;;6.13;2.90;;;15.30;99.90;;;;;;5073748;28;20041;-63
2022/10/27 06:30:20;;;;;;;9.75;2.90;;;15.30;99.90;;;;;;5073513;28;20443;-63
2022/10/27 06:32:47;;;;;;;91.78;75.97;;;15.30;99.90;;;;;;5072453;28;20356;-64
2022/10/27 06:35:14;;;;;;;12.20;7.65;;;15.40;99.90;;;;;;5071657;28;20041;-64
2022/10/27 06:37:43;;;;;;;7.57;3.90;;;15.50;99.90;;;;;;5073363;28;20048;-63
2022/10/27 06:40:10;;;;;;;5.63;2.00;;;15.50;99.90;;;;;;5072015;28;20067;-63
2022/10/27 06:42:40;;;;;;;6.05;1.90;;;15.50;99.90;;;;;;5073260;28;20265;-63
2022/10/27 06:45:26;;;;;;;7.07;2.65;;;15.60;99.90;;;;;;5072628;28;20048;-63
2022/10/27 06:47:57;;;;;;;8.75;2.72;;;15.60;99.90;;;;;;5055049;28;20041;-63
2022/10/27 06:50:24;;;;;;;8.57;3.10;;;15.60;99.90;;;;;;5055144;28;20040;-63
2022/10/27 06:52:52;;;;;;;6.47;2.78;;;15.70;99.90;;;;;;5072111;28;20101;-63
2022/10/27 06:55:19;;;;;;;7.55;2.22;;;15.70;99.90;;;;;;5072836;28;20040;-64
2022/10/27 06:57:46;;;;;;;6.18;2.90;;;15.70;99.90;;;;;;5055107;28;20052;-63
2022/10/27 07:00:13;;;;;;;7.68;2.28;;;15.70;99.90;;;;;;5054964;28;20090;-64
2022/10/27 07:02:40;;;;;;;6.72;2.42;;;15.70;99.90;;;;;;5073258;28;20456;-64
2022/10/27 07:05:08;;;;;;;6.68;2.38;;;15.70;99.90;;;;;;5071417;28;20106;-64
2022/10/27 07:07:35;;;;;;;6.85;2.70;;;15.80;99.90;;;;;;5073412;28;20044;-63
2022/10/27 07:10:04;;;;;;;5.30;2.90;;;15.80;99.90;;;;;;5058887;28;20381;-63
2022/10/27 07:12:30;;;;;;;6.97;2.55;;;15.80;99.90;;;;;;5075263;28;20052;-64
2022/10/27 07:14:57;;;;;;;8.32;5.70;;;15.70;99.90;;;;;;5075430;28;20071;-64
2022/10/27 07:17:24;;;;;;;9.07;3.13;;;15.70;99.90;;;;;;5076366;28;20040;-64
2022/10/27 07:19:51;;;;;;;11.27;2.75;;;15.70;99.90;;;;;;5076917;28;20052;-64
2022/10/27 07:22:18;;;;;;;8.10;3.22;;;15.70;99.90;;;;;;5076175;28;20234;-64
2022/10/27 07:24:45;;;;;;;6.97;2.97;;;15.70;99.90;;;;;;5075644;28;20045;-64
2022/10/27 07:27:12;;;;;;;9.10;3.60;;;15.70;99.90;;;;;;5075924;28;20048;-63
2022/10/27 07:29:38;;;;;;;6.03;2.55;;;15.70;99.90;;;;;;5074782;28;20041;-63
2022/10/27 07:32:05;;;;;;;7.20;2.95;;;15.70;99.90;;;;;;5075122;28;20094;-64
2022/10/27 07:34:32;;;;;;;6.88;2.40;;;15.70;99.90;;;;;;5076405;28;20041;-63
2022/10/27 07:36:59;;;;;;;6.47;2.78;;;15.70;99.90;;;;;;5076773;28;20044;-63
2022/10/27 07:39:26;;;;;;;5.50;2.85;;;15.70;99.90;;;;;;5076020;28;20080;-63
2022/10/27 07:41:53;;;;;;;6.97;2.63;;;15.70;99.90;;;;;;5058030;28;20094;-63
2022/10/27 07:44:19;;;;;;;8.05;3.50;;;15.70;99.90;;;;;;5074360;28;20074;-65
2022/10/27 07:46:46;;;;;;;53.47;46.97;;;15.70;99.90;;;;;;5074875;28;20083;-64
2022/10/27 07:49:13;;;;;;;97.57;66.45;;;15.70;99.90;;;;;;5058043;28;20430;-63
2022/10/27 07:51:40;;;;;;;72.85;65.95;;;15.80;99.90;;;;;;5074726;28;20077;-63
2022/10/27 07:54:07;;;;;;;21.42;17.13;;;15.80;99.90;;;;;;5074327;28;20040;-63
2022/10/27 07:56:36;;;;;;;12.68;7.18;;;15.90;99.90;;;;;;5074198;28;20055;-63
2022/10/27 07:59:03;;;;;;;7.57;4.10;;;15.80;99.90;;;;;;5074408;28;20106;-63
2022/10/27 08:01:30;;;;;;;8.70;3.97;;;15.90;99.90;;;;;;5075717;28;20105;-63
2022/10/27 08:03:57;;;;;;;7.10;2.50;;;15.90;99.90;;;;;;5075404;28;20446;-62
2022/10/27 08:06:24;;;;;;;7.95;2.60;;;15.90;99.90;;;;;;5075316;28;20438;-63
2022/10/27 08:08:50;;;;;;;7.82;2.90;;;15.90;99.90;;;;;;5058269;28;20464;-63
2022/10/27 08:11:17;;;;;;;9.25;2.85;;;15.90;99.90;;;;;;5074918;28;20040;-63
2022/10/27 08:13:44;;;;;;;63.40;44.95;;;15.90;99.90;;;;;;5074393;28;20106;-63
2022/10/27 08:16:11;;;;;;;12.35;5.40;;;16.00;99.90;;;;;;5057773;28;20044;-63
2022/10/27 08:18:38;;;;;;;6.40;3.60;;;16.00;99.90;;;;;;5073596;28;20053;-64
2022/10/27 08:21:05;;;;;;;64.20;48.83;;;16.00;99.90;;;;;;5074780;28;20049;-63
2022/10/27 08:23:32;;;;;;;17.67;6.82;;;16.00;99.90;;;;;;5073887;28;20426;-64
2022/10/27 08:25:58;;;;;;;10.57;4.18;;;16.00;99.90;;;;;;5075370;28;20048;-61
2022/10/27 08:28:25;;;;;;;6.72;4.25;;;16.00;99.90;;;;;;5075557;28;20048;-62
2022/10/27 08:30:52;;;;;;;6.40;2.97;;;16.00;99.90;;;;;;5073975;28;20048;-62
2022/10/27 08:33:20;;;;;;;10.95;3.50;;;16.00;99.90;;;;;;5057596;28;20040;-62
2022/10/27 08:35:49;;;;;;;10.43;3.63;;;16.10;99.90;;;;;;5058094;28;20052;-64
2022/10/27 08:38:16;;;;;;;240.90;202.65;;;16.10;99.90;;;;;;5075232;28;20044;-63
2022/10/27 08:40:58;;;;;;;29.90;20.75;;;16.20;99.90;;;;;;5056997;28;20484;-63
2022/10/27 08:43:46;;;;;;;12.23;7.53;;;16.40;99.90;;;;;;5075753;28;20142;-62
2022/10/27 08:46:46;;;;;;;10.93;4.13;;;16.50;99.90;;;;;;5074285;28;20063;-63
2022/10/27 08:49:37;;;;;;;11.13;3.65;;;16.50;99.90;;;;;;5059220;28;20413;-62
2022/10/27 08:52:27;;;;;;;7.10;2.97;;;16.60;99.90;;;;;;5075671;28;20110;-62
2022/10/27 08:55:11;;;;;;;12.13;4.50;;;16.60;99.90;;;;;;5074280;28;20131;-62
2022/10/27 08:57:46;;;;;;;10.73;3.50;;;16.60;99.90;;;;;;5074021;28;20097;-62
2022/10/27 09:00:13;;;;;;;11.02;4.07;;;16.70;99.90;;;;;;5058084;28;20044;-62
2022/10/27 09:03:21;;;;;;;11.13;3.67;;;16.80;99.90;;;;;;5056479;28;20055;-62
2022/10/27 09:06:10;;;;;;;9.95;3.67;;;16.80;99.90;;;;;;5072951;28;20392;-62
2022/10/27 09:08:43;;;;;;;14.40;4.20;;;17.00;99.90;;;;;;5074021;28;20373;-62
2022/10/27 09:11:38;;;;;;;9.57;3.38;;;17.00;99.90;;;;;;5072998;28;20434;-62
2022/10/27 09:14:26;;;;;;;10.38;3.53;;;17.10;99.90;;;;;;5041037;28;20113;-62
2022/10/27 09:17:11;;;;;;;8.50;3.38;;;17.10;99.90;;;;;;5073843;28;20047;-62
2022/10/27 09:19:44;;;;;;;17.77;4.53;;;17.10;99.90;;;;;;5058741;28;20047;-62
2022/10/27 09:22:17;;;;;;;7.93;3.55;;;17.20;99.90;;;;;;5072784;28;20045;-62
2022/10/27 09:24:49;;;;;;;16.63;5.18;;;17.20;99.90;;;;;;5057322;28;20040;-62
2022/10/27 09:27:16;;;;;;;9.68;3.67;;;17.30;99.90;;;;;;5056808;28;20044;-62
2022/10/27 09:29:43;;;;;;;12.00;3.65;;;17.30;99.90;;;;;;5039665;28;20049;-62
2022/10/27 09:32:22;;;;;;;7.15;3.42;;;17.30;99.90;;;;;;5055556;28;20048;-62
2022/10/27 09:35:03;;;;;;;10.80;4.10;;;17.50;99.90;;;;;;5056452;28;20048;-62
2022/10/27 09:37:33;;;;;;;11.52;3.83;;;17.50;99.90;;;;;;5073002;28;20329;-62
2022/10/27 09:40:00;;;;;;;10.80;3.05;;;17.60;99.90;;;;;;5072040;28;20090;-62
2022/10/27 09:42:26;;;;;;;13.48;3.60;;;17.60;99.90;;;;;;5055815;28;20040;-62
2022/10/27 09:45:00;;;;;;;9.75;4.28;;;17.70;99.90;;;;;;5055356;28;20048;-62
2022/10/27 09:47:31;;;;;;;11.57;4.03;;;17.70;99.90;;;;;;5056311;28;20052;-62
2022/10/27 09:49:58;;;;;;;12.65;4.05;;;17.70;99.90;;;;;;5056801;28;20040;-62
2022/10/27 09:52:31;;;;;;;9.80;3.53;;;17.80;99.90;;;;;;5072302;28;20048;-62
2022/10/27 09:54:57;;;;;;;10.73;3.80;;;17.80;99.90;;;;;;5071937;28;20476;-62
2022/10/27 09:57:28;;;;;;;11.60;3.53;;;17.80;99.90;;;;;;5073268;28;20083;-62
2022/10/27 10:00:06;;;;;;;14.15;4.22;;;17.90;99.90;;;;;;5072136;28;20087;-62
2022/10/27 10:02:37;;;;;;;10.95;4.03;;;18.00;99.90;;;;;;5056757;28;20087;-62
2022/10/27 10:05:19;;;;;;;9.50;3.92;;;18.00;99.90;;;;;;5056494;28;20048;-62
2022/10/27 10:07:46;;;;;;;9.70;3.50;;;18.00;99.90;;;;;;5073146;28;20048;-62
2022/10/27 10:10:23;;;;;;;8.65;3.28;;;18.10;99.90;;;;;;5055092;28;20480;-62
2022/10/27 10:13:02;;;;;;;13.07;4.22;;;18.10;99.90;;;;;;5072810;28;20435;-62
2022/10/27 10:15:29;;;;;;;14.57;4.70;;;18.20;99.90;;;;;;5073417;28;20079;-62
2022/10/27 10:18:00;;;;;;;9.88;3.95;;;18.20;99.90;;;;;;5055122;28;20394;-62
2022/10/27 10:20:30;;;;;;;12.13;3.38;;;18.30;99.90;;;;;;5056411;28;20048;-62
2022/10/27 10:22:57;;;;;;;8.23;3.17;;;18.40;99.90;;;;;;5073391;28;20067;-62
2022/10/27 10:25:29;;;;;;;13.40;3.78;;;18.60;99.90;;;;;;5055348;28;20044;-62
2022/10/27 10:28:05;;;;;;;8.63;3.17;;;18.70;99.90;;;;;;5055488;28;20040;-62
2022/10/27 10:30:34;;;;;;;8.93;3.10;;;18.80;99.90;;;;;;5071583;28;20056;-62
2022/10/27 10:33:03;;;;;;;;;;;18.90;99.90;;;;;;5055561;28;20442;-62
2022/10/27 10:35:45;;;;;;;8.70;2.92;;;18.90;99.90;;;;;;5055313;28;19978;-62
2022/10/27 10:38:28;;;;;;;10.57;3.25;;;19.00;99.90;;;;;;5071590;28;20045;-62
2022/10/27 10:40:55;;;;;;;8.65;3.85;;;19.10;99.90;;;;;;5072933;28;20060;-62
2022/10/27 10:43:22;;;;;;;10.50;3.90;;;19.10;99.90;;;;;;5072358;28;20105;-62
2022/10/27 10:45:51;;;;;;;8.13;3.40;;;19.20;99.90;;;;;;5072982;28;20075;-62
2022/10/27 10:48:39;;;;;;;11.73;3.10;;;19.30;99.90;;;;;;5055288;28;20385;-62
2022/10/27 10:51:09;;;;;;;10.07;3.17;;;19.30;99.90;;;;;;5071545;28;20101;-62
2022/10/27 10:54:07;;;;;;;10.70;3.42;;;19.40;99.90;;;;;;5071523;28;20040;-62
2022/10/27 10:56:37;;;;;;;8.77;3.63;;;19.40;99.90;;;;;;5068302;28;20047;-62
2022/10/27 10:59:09;;;;;;;7.97;3.53;;;19.50;99.90;;;;;;5072930;28;20107;-62
2022/10/27 11:01:57;;;;;;;8.93;3.00;;;19.50;99.90;;;;;;5072103;28;20101;-62
2022/10/27 11:04:26;;;;;;;12.18;4.05;;;19.60;99.90;;;;;;5073032;28;20447;-62
2022/10/27 11:07:04;;;;;;;5.93;2.65;;;19.70;99.90;;;;;;5072595;28;20044;-62
2022/10/27 11:09:48;;;;;;;11.85;4.60;;;19.70;99.90;;;;;;5055575;28;20040;-62
2022/10/27 11:12:57;;;;;;;6.63;3.08;;;19.70;99.90;;;;;;5055966;28;20080;-63
2022/10/27 11:15:31;;;;;;;12.13;3.88;;;19.80;99.90;;;;;;5069678;28;20044;-63
2022/10/27 11:18:10;;;;;;;53.92;48.05;;;19.80;99.90;;;;;;5072830;28;20044;-65
2022/10/27 11:20:37;;;;;;;10.70;6.88;;;19.80;99.90;;;;;;5057195;28;20041;-63
2022/10/27 11:23:13;;;;;;;6.45;3.53;;;19.90;99.90;;;;;;5072379;28;20040;-63
2022/10/27 11:25:40;;;;;;;9.77;3.35;;;19.90;99.90;;;;;;5039703;28;20468;-65
2022/10/27 11:28:50;;;;;;;7.65;2.75;;;19.80;99.90;;;;;;5054840;28;20422;-64
2022/10/27 11:31:32;;;;;;;7.60;2.63;;;19.80;99.90;;;;;;5071541;28;20144;-66
2022/10/27 11:34:13;;;;;;;9.27;2.90;;;19.70;99.90;;;;;;5072404;28;20079;-64
2022/10/27 11:36:58;;;;;;;9.10;4.40;;;19.70;99.90;;;;;;5054641;28;20051;-66
2022/10/27 11:40:26;;;;;;;9.23;3.00;;;19.70;99.90;;;;;;5071344;28;20545;-70
2022/10/27 11:43:17;;;;;;;7.95;3.28;;;19.60;99.90;;;;;;5049836;28;20052;-66
2022/10/27 11:46:11;;;;;;;10.30;2.92;;;19.60;99.90;;;;;;5070876;28;20088;-66
2022/10/27 11:48:42;;;;;;;7.50;3.10;;;19.60;99.90;;;;;;5056088;28;20041;-66
2022/10/27 11:51:15;;;;;;;7.30;2.60;;;19.60;99.90;;;;;;5071209;28;20052;-67
2022/10/27 11:53:42;;;;;;;8.68;3.20;;;19.70;99.90;;;;;;5074002;28;20044;-67
2022/10/27 11:56:19;;;;;;;10.15;3.20;;;19.70;99.90;;;;;;5058674;28;20048;-66
2022/10/27 11:59:10;;;;;;;6.57;2.72;;;19.60;99.90;;;;;;5074343;28;20041;-65
2022/10/27 12:02:00;;;;;;;7.35;2.65;;;19.60;99.90;;;;;;5075269;28;20094;-65
2022/10/27 12:05:18;;;;;;;9.00;2.80;;;19.60;99.90;;;;;;5075247;28;20064;-65
2022/10/27 12:08:23;;;;;;;35.65;27.92;;;19.60;99.90;;;;;;5063257;28;20044;-64
2022/10/27 12:10:53;;;;;;;80.15;68.15;;;19.60;99.90;;;;;;5074607;28;20049;-62
2022/10/27 12:13:36;;;;;;;11.25;8.07;;;19.60;99.90;;;;;;5075248;28;20040;-63
2022/10/27 12:16:07;;;;;;;9.43;4.30;;;19.60;99.90;;;;;;5074080;28;20041;-63
2022/10/27 12:18:48;;;;;;;8.10;3.13;;;19.70;99.90;;;;;;5057880;28;20533;-63
2022/10/27 12:21:34;;;;;;;9.40;3.60;;;19.60;99.90;;;;;;5075204;28;20098;-62
2022/10/27 12:24:12;;;;;;;7.88;2.90;;;19.70;99.90;;;;;;5057991;28;20047;-65
2022/10/27 12:26:43;;;;;;;4.70;2.40;;;19.80;99.90;;;;;;5074064;28;20132;-63
2022/10/27 12:29:10;;;;;;;7.13;3.80;;;19.90;99.90;;;;;;5074921;28;20079;-64
2022/10/27 12:32:02;;;;;;;8.65;2.35;;;19.90;99.90;;;;;;5073997;28;20114;-63
2022/10/27 12:34:33;;;;;;;4.03;2.00;;;20.00;99.90;;;;;;5069142;28;20488;-64
2022/10/27 12:37:04;;;;;;;8.93;2.90;;;20.10;99.90;;;;;;5057474;28;20041;-64
2022/10/27 12:39:52;;;;;;;7.57;2.65;;;20.20;99.90;;;;;;5073927;28;20079;-63
2022/10/27 12:42:19;;;;;;;7.27;2.97;;;20.20;99.90;;;;;;5074790;28;20106;-63
2022/10/27 12:44:46;;;;;;;6.35;2.97;;;20.20;99.90;;;;;;5075009;28;20281;-63
2022/10/27 12:47:35;;;;;;;4.78;2.40;;;20.20;99.90;;;;;;5073348;28;20098;-65
2022/10/27 12:50:26;;;;;;;6.32;2.53;;;20.30;99.90;;;;;;5074962;28;20436;-63
2022/10/27 12:53:18;;;;;;;7.88;2.97;;;20.30;99.90;;;;;;5073785;28;20525;-63
2022/10/27 12:56:04;;;;;;;6.57;2.35;;;20.40;99.90;;;;;;5075531;28;20078;-63
2022/10/27 12:58:55;;;;;;;6.85;2.50;;;20.40;99.90;;;;;;5075170;28;20049;-63
2022/10/27 13:01:41;;;;;;;5.57;2.55;;;20.50;99.90;;;;;;5074895;28;20043;-66
2022/10/27 13:04:35;;;;;;;10.18;2.35;;;20.50;99.90;;;;;;5059004;28;20537;-73
2022/10/27 13:07:32;;;;;;;6.82;2.42;;;20.50;99.90;;;;;;5073769;28;20495;-74
2022/10/27 13:10:06;;;;;;;5.50;2.10;;;20.50;99.90;;;;;;5073415;28;20480;-71